Time;durP1;ratioP1;P1;durP2;ratioP2;P2;SDS_P1;SDS_P2;PMS_P1;PMS_P2;Temp;Humidity;BMP_temperature;BMP_pressure;BME280_temperature;BME280_humidity;BME280_pressure;Samples;Min_cycle;Max_cycle;Signal;HPM_P1;HPM_P2
2023/06/29 00:03:02;;;;;;;2.15;1.20;;;25.80;79.40;;;;;;10789402;33;20043;-74
2023/06/29 00:09:05;;;;;;;2.62;1.90;;;25.70;79.40;;;;;;10789150;33;20013;-74
2023/06/29 00:15:07;;;;;;;4.43;2.05;;;25.70;79.50;;;;;;10776034;33;20028;-74
2023/06/29 00:21:28;;;;;;;3.62;1.77;;;25.70;79.50;;;;;;10785037;33;20052;-74
2023/06/29 00:27:33;;;;;;;3.30;2.10;;;25.70;79.40;;;;;;10775116;33;20036;-74
2023/06/29 00:33:35;;;;;;;2.50;1.70;;;25.70;79.60;;;;;;10776446;32;20444;-74
2023/06/29 00:39:40;;;;;;;2.97;1.85;;;25.60;79.30;;;;;;10788434;33;20039;-74
2023/06/29 00:45:42;;;;;;;4.03;2.15;;;25.60;79.40;;;;;;10788300;33;20020;-74
2023/06/29 00:51:50;;;;;;;3.70;2.25;;;25.60;79.30;;;;;;10788065;33;20457;-74
2023/06/29 00:57:52;;;;;;;9.35;1.80;;;25.50;79.20;;;;;;10787240;33;20016;-74
2023/06/29 01:03:57;;;;;;;4.03;2.25;;;25.60;79.20;;;;;;10771113;33;20288;-74
2023/06/29 01:10:00;;;;;;;5.35;2.92;;;25.40;79.40;;;;;;10774112;33;20472;-74
2023/06/29 01:16:04;;;;;;;3.00;2.03;;;25.50;79.00;;;;;;10783910;33;20043;-74
2023/06/29 01:22:14;;;;;;;5.35;2.92;;;25.50;79.10;;;;;;10772732;33;20025;-74
2023/06/29 01:28:17;;;;;;;2.50;1.85;;;25.50;79.10;;;;;;10787269;33;20028;-74
2023/06/29 01:34:19;;;;;;;3.70;2.25;;;25.40;79.50;;;;;;10783241;33;20099;-74
2023/06/29 01:40:51;;;;;;;3.62;2.53;;;25.40;79.40;;;;;;10787096;33;20020;-74
2023/06/29 01:47:40;;;;;;;2.85;1.77;;;25.40;79.20;;;;;;10786866;33;20043;-74
2023/06/29 01:53:42;;;;;;;3.53;1.95;;;25.30;79.50;;;;;;10786830;33;20025;-74
2023/06/29 01:59:45;;;;;;;2.58;1.48;;;25.30;79.30;;;;;;10787974;33;20042;-74
2023/06/29 02:05:47;;;;;;;3.22;2.00;;;25.20;79.20;;;;;;10787695;33;20039;-74
2023/06/29 02:11:50;;;;;;;4.37;1.92;;;25.20;79.30;;;;;;10792793;33;20048;-74
2023/06/29 02:17:52;;;;;;;1.92;1.65;;;25.00;79.60;;;;;;10779065;33;20032;-74
2023/06/29 02:23:54;;;;;;;3.40;2.10;;;25.00;79.70;;;;;;10793011;33;20016;-74
2023/06/29 02:29:56;;;;;;;4.05;2.50;;;24.90;79.70;;;;;;10792346;33;20028;-74
2023/06/29 02:35:58;;;;;;;3.90;1.70;;;24.80;79.80;;;;;;10791966;33;20017;-74
2023/06/29 02:42:00;;;;;;;2.33;1.52;;;24.80;79.70;;;;;;10791039;33;20032;-74
2023/06/29 02:48:03;;;;;;;3.45;2.17;;;24.80;79.70;;;;;;10792144;33;20330;-74
2023/06/29 02:54:05;;;;;;;10.23;3.12;;;24.80;79.70;;;;;;10788624;33;20024;-74
2023/06/29 03:00:08;;;;;;;2.65;1.83;;;24.70;79.80;;;;;;10792093;33;20017;-74
2023/06/29 03:06:11;;;;;;;6.70;2.33;;;24.80;79.90;;;;;;10778151;33;20039;-74
2023/06/29 03:12:13;;;;;;;5.37;2.55;;;24.80;80.20;;;;;;10777730;33;20035;-74
2023/06/29 03:18:15;;;;;;;4.15;2.03;;;24.80;79.70;;;;;;10777154;33;20024;-74
2023/06/29 03:24:17;;;;;;;5.50;2.33;;;24.70;79.80;;;;;;10790723;33;20020;-74
2023/06/29 03:30:19;;;;;;;3.17;2.25;;;24.70;80.10;;;;;;10790745;33;20450;-74
2023/06/29 03:36:21;;;;;;;3.72;2.60;;;24.70;80.20;;;;;;10791535;33;20012;-74
2023/06/29 03:42:23;;;;;;;4.35;1.98;;;24.50;80.20;;;;;;10778280;33;20017;-74
2023/06/29 03:48:27;;;;;;;3.10;2.15;;;24.40;80.30;;;;;;10791130;33;20370;-74
2023/06/29 03:54:29;;;;;;;5.70;2.60;;;24.50;80.20;;;;;;10790955;33;20468;-74
2023/06/29 04:00:31;;;;;;;4.97;2.17;;;24.50;80.10;;;;;;10786066;33;20020;-74
2023/06/29 04:06:33;;;;;;;5.55;2.65;;;24.60;80.40;;;;;;10776977;33;20051;-74
2023/06/29 04:12:35;;;;;;;4.35;2.53;;;24.60;80.70;;;;;;10789125;33;20039;-75
2023/06/29 04:18:37;;;;;;;2.25;1.77;;;24.50;81.30;;;;;;10789667;33;20016;-74
2023/06/29 04:24:39;;;;;;;5.53;2.05;;;24.40;81.40;;;;;;10790072;33;20044;-74
2023/06/29 04:30:42;;;;;;;5.40;2.78;;;24.40;81.50;;;;;;10788685;33;20028;-74
2023/06/29 04:36:46;;;;;;;4.20;1.85;;;24.40;81.80;;;;;;10790332;33;20012;-74
2023/06/29 04:42:48;;;;;;;3.35;2.20;;;24.40;82.00;;;;;;10789630;33;20433;-74
2023/06/29 04:48:50;;;;;;;2.12;1.50;;;24.50;81.90;;;;;;10788874;33;20078;-74
2023/06/29 04:54:52;;;;;;;3.67;2.40;;;24.40;81.80;;;;;;10773446;33;20059;-74
2023/06/29 05:00:54;;;;;;;3.42;2.05;;;24.30;82.10;;;;;;10788637;33;20318;-74
2023/06/29 05:06:56;;;;;;;3.10;1.37;;;24.30;82.20;;;;;;10789016;33;20016;-74
2023/06/29 05:12:58;;;;;;;1.77;1.55;;;24.40;82.40;;;;;;10788976;33;20382;-74
2023/06/29 05:19:00;;;;;;;3.40;2.00;;;24.50;82.20;;;;;;10775810;33;20306;-74
2023/06/29 05:25:03;;;;;;;1.40;1.17;;;24.50;81.70;;;;;;10788630;33;20012;-74
2023/06/29 05:31:05;;;;;;;0.85;0.77;;;24.60;81.70;;;;;;10787241;33;20032;-74
2023/06/29 05:37:07;;;;;;;4.05;1.15;;;24.70;81.90;;;;;;10787787;33;20402;-74
2023/06/29 05:43:09;;;;;;;1.48;1.00;;;24.80;82.00;;;;;;10789697;33;20028;-75
2023/06/29 05:49:11;;;;;;;1.35;0.90;;;24.80;81.90;;;;;;10794534;33;20043;-75
2023/06/29 05:55:13;;;;;;;1.08;0.88;;;24.90;82.10;;;;;;10793235;33;20017;-74
2023/06/29 06:01:15;;;;;;;1.95;1.12;;;24.90;82.40;;;;;;10794007;33;20008;-74
2023/06/29 06:07:30;;;;;;;1.33;0.85;;;24.90;82.40;;;;;;10793413;33;20044;-75
2023/06/29 06:13:32;;;;;;;3.35;1.58;;;25.00;82.70;;;;;;10793928;33;20028;-74
2023/06/29 06:19:34;;;;;;;1.33;1.00;;;25.00;82.40;;;;;;10789075;33;20017;-74
2023/06/29 06:25:36;;;;;;;3.05;1.65;;;25.10;82.60;;;;;;10793522;33;20012;-75
2023/06/29 06:31:38;;;;;;;1.08;0.88;;;25.00;82.50;;;;;;10792140;33;20028;-74
2023/06/29 06:37:40;;;;;;;1.90;1.25;;;25.10;82.80;;;;;;10791979;33;20052;-74
2023/06/29 06:43:42;;;;;;;2.58;1.08;;;25.50;82.30;;;;;;10778233;33;20032;-73
2023/06/29 06:49:45;;;;;;;6.72;2.17;;;25.50;82.00;;;;;;10779091;33;20008;-74
2023/06/29 06:55:47;;;;;;;4.35;1.25;;;25.50;82.00;;;;;;10791738;33;20021;-74
2023/06/29 07:01:49;;;;;;;1.35;1.02;;;25.30;81.90;;;;;;10777084;33;20086;-76
2023/06/29 07:07:53;;;;;;;2.15;1.33;;;25.30;82.00;;;;;;10779277;33;20032;-75
2023/06/29 07:13:55;;;;;;;2.33;1.30;;;25.50;81.60;;;;;;10779619;33;20043;-74
2023/06/29 07:19:57;;;;;;;2.42;1.50;;;25.70;81.50;;;;;;10790861;33;20021;-74
2023/06/29 07:26:01;;;;;;;3.03;1.80;;;25.90;81.50;;;;;;10791017;27;20021;31
2023/06/29 07:32:03;;;;;;;5.75;1.33;;;25.90;80.80;;;;;;10789077;33;20067;-75
2023/06/29 07:38:05;;;;;;;4.75;1.77;;;25.80;81.00;;;;;;10791205;33;20319;-75
2023/06/29 07:44:07;;;;;;;2.47;1.73;;;25.70;80.30;;;;;;10790110;33;20326;-75
2023/06/29 07:50:10;;;;;;;3.25;2.00;;;25.80;80.50;;;;;;10789903;33;20047;-75
2023/06/29 07:56:12;;;;;;;1.27;1.17;;;26.00;79.60;;;;;;10790889;33;20025;-75
2023/06/29 08:02:32;;;;;;;1.70;1.08;;;26.20;79.00;;;;;;10790154;33;20388;-74
2023/06/29 08:08:34;;;;;;;2.90;1.77;;;26.40;78.60;;;;;;10788985;33;20047;-76
2023/06/29 08:14:38;;;;;;;6.57;2.62;;;26.60;78.50;;;;;;10838658;32;20444;-73
2023/06/29 08:20:40;;;;;;;2.45;1.50;;;26.70;78.10;;;;;;10839219;32;20071;-76
2023/06/29 08:26:42;;;;;;;5.78;2.67;;;26.80;77.60;;;;;;10806746;32;20026;-75
2023/06/29 08:32:47;;;;;;;4.28;2.45;;;26.80;76.60;;;;;;10943610;32;20023;-75
2023/06/29 08:38:49;;;;;;;2.37;1.55;;;26.80;75.80;;;;;;10943216;32;20069;-74
2023/06/29 08:44:53;;;;;;;1.80;1.10;;;26.90;75.20;;;;;;10942912;32;20019;-75
2023/06/29 08:51:00;;;;;;;3.62;1.85;;;27.10;74.90;;;;;;10943403;32;20439;-75
2023/06/29 08:57:05;;;;;;;7.65;1.95;;;27.20;73.70;;;;;;10938794;32;20046;-74
2023/06/29 09:03:07;;;;;;;3.58;2.10;;;27.30;72.90;;;;;;10942974;32;20026;-73
2023/06/29 09:09:10;;;;;;;5.93;1.62;;;27.30;73.60;;;;;;10941908;32;20054;-75
2023/06/29 09:15:13;;;;;;;4.03;1.85;;;27.40;74.70;;;;;;10941726;32;20041;-75
2023/06/29 09:21:25;;;;;;;3.92;1.92;;;27.70;73.30;;;;;;10949025;32;20023;-75
2023/06/29 09:27:27;;;;;;;2.97;1.77;;;27.80;72.30;;;;;;10910778;32;20029;-75
2023/06/29 09:33:29;;;;;;;2.10;1.50;;;27.90;72.30;;;;;;10794573;33;20017;-75
2023/06/29 09:39:31;;;;;;;1.83;1.15;;;28.00;71.40;;;;;;10843402;32;20032;-75
2023/06/29 09:45:33;;;;;;;2.12;1.10;;;28.30;71.40;;;;;;10794678;33;20021;-76
2023/06/29 09:51:35;;;;;;;3.97;1.62;;;28.40;71.20;;;;;;10794003;33;20032;-77
2023/06/29 09:57:42;;;;;;;4.07;1.83;;;28.60;69.50;;;;;;10793198;33;20047;-74
2023/06/29 10:03:44;;;;;;;2.70;1.20;;;28.60;67.70;;;;;;10793018;33;20055;-73
2023/06/29 10:09:48;;;;;;;3.62;1.60;;;28.50;66.40;;;;;;10792880;33;20047;-75
2023/06/29 10:15:52;;;;;;;2.50;1.60;;;28.30;65.80;;;;;;10792509;33;20036;-75
2023/06/29 10:21:59;;;;;;;3.25;1.30;;;27.90;66.60;;;;;;10842093;32;20032;-74
2023/06/29 10:28:03;;;;;;;2.72;1.45;;;27.70;67.20;;;;;;10791783;33;20021;-74
2023/06/29 10:34:08;;;;;;;3.10;1.83;;;27.70;67.70;;;;;;10791970;33;20044;-75
2023/06/29 10:40:10;;;;;;;2.40;1.50;;;28.10;67.10;;;;;;10791689;33;20047;-74
2023/06/29 10:46:14;;;;;;;4.97;1.85;;;28.60;66.90;;;;;;10839588;32;20036;-74
2023/06/29 10:52:24;;;;;;;3.58;1.37;;;29.10;66.80;;;;;;10790573;32;20021;-74
2023/06/29 10:58:28;;;;;;;3.40;1.60;;;29.40;67.00;;;;;;10842104;32;20035;-74
2023/06/29 11:04:31;;;;;;;1.92;1.48;;;29.80;64.90;;;;;;10791307;33;20433;-73
2023/06/29 11:10:34;;;;;;;1.58;0.98;;;29.40;64.20;;;;;;10841621;32;20440;-74
2023/06/29 11:16:38;;;;;;;1.58;1.12;;;29.10;64.60;;;;;;10790952;33;20035;-74
2023/06/29 11:22:42;;;;;;;1.42;0.88;;;29.30;63.30;;;;;;10790759;33;20062;-74
2023/06/29 11:28:46;;;;;;;1.33;0.90;;;29.80;61.80;;;;;;10790503;33;20017;-74
2023/06/29 11:34:57;;;;;;;2.30;1.20;;;30.30;60.10;;;;;;10790418;33;20024;-74
2023/06/29 11:41:06;;;;;;;2.12;1.10;;;30.40;60.60;;;;;;10789504;33;20016;-74
2023/06/29 11:47:09;;;;;;;2.80;1.00;;;30.50;59.50;;;;;;10789768;33;20024;-74
2023/06/29 11:53:12;;;;;;;1.70;1.30;;;30.30;59.30;;;;;;10789890;33;20024;-74
2023/06/29 11:59:17;;;;;;;0.93;0.82;;;30.20;58.90;;;;;;10789603;33;20016;-74
2023/06/29 12:05:19;;;;;;;1.83;1.05;;;30.60;57.60;;;;;;10789390;33;20441;-74
2023/06/29 12:11:25;;;;;;;1.20;0.93;;;31.00;56.20;;;;;;10789032;33;20021;-74
2023/06/29 12:17:27;;;;;;;0.98;0.68;;;31.30;54.80;;;;;;10789138;33;20009;-74
2023/06/29 12:23:29;;;;;;;2.12;1.23;;;31.40;54.10;;;;;;10788997;33;20012;-74
2023/06/29 12:29:31;;;;;;;3.50;1.15;;;31.50;53.20;;;;;;10784966;33;20016;-74
2023/06/29 12:35:34;;;;;;;1.83;1.00;;;31.60;55.30;;;;;;10788556;33;20043;-74
2023/06/29 12:41:36;;;;;;;1.33;0.90;;;31.40;56.30;;;;;;10788450;33;20021;-74
2023/06/29 12:47:39;;;;;;;7.22;1.50;;;31.40;54.10;;;;;;10785964;33;20424;-75
2023/06/29 12:53:42;;;;;;;2.80;1.48;;;31.40;56.80;;;;;;10788033;33;20418;-74
2023/06/29 12:59:44;;;;;;;1.98;0.95;;;31.40;55.80;;;;;;10787991;33;20402;-74
2023/06/29 13:05:49;;;;;;;2.97;1.62;;;31.50;54.80;;;;;;10787658;33;20021;-74
2023/06/29 13:11:52;;;;;;;1.85;1.08;;;31.70;54.20;;;;;;10833953;32;20062;-74
2023/06/29 13:17:55;;;;;;;2.78;1.60;;;31.80;53.20;;;;;;10787545;33;20017;-73
2023/06/29 13:23:57;;;;;;;1.05;0.88;;;31.70;52.80;;;;;;10787506;33;20021;-74
2023/06/29 13:29:59;;;;;;;1.40;1.00;;;31.70;52.00;;;;;;10783296;33;20331;-74
2023/06/29 13:36:02;;;;;;;3.22;1.25;;;31.70;53.10;;;;;;10787252;33;20047;-75
2023/06/29 13:42:09;;;;;;;1.58;0.75;;;31.30;57.70;;;;;;10787232;33;20013;-73
2023/06/29 13:48:11;;;;;;;1.67;0.90;;;31.30;55.20;;;;;;10786943;33;20021;-73
2023/06/29 13:54:14;;;;;;;2.25;1.23;;;31.40;55.80;;;;;;10824759;32;20074;-73
2023/06/29 14:00:16;;;;;;;17.08;1.60;;;31.40;54.70;;;;;;10782694;33;20047;-74
2023/06/29 14:06:19;;;;;;;1.83;0.95;;;31.40;54.00;;;;;;10841340;32;20326;-74
2023/06/29 14:12:21;;;;;;;1.83;0.82;;;31.30;55.10;;;;;;10842428;32;20055;-74
2023/06/29 14:18:24;;;;;;;2.58;1.15;;;31.20;55.40;;;;;;10792460;33;20039;-73
2023/06/29 14:24:26;;;;;;;1.62;1.05;;;31.10;60.70;;;;;;10788269;33;20024;-74
2023/06/29 14:30:28;;;;;;;4.07;0.90;;;31.00;59.20;;;;;;10791769;33;20028;-74
2023/06/29 14:36:30;;;;;;;3.25;1.17;;;31.00;59.10;;;;;;10791819;33;20048;-74
2023/06/29 14:42:33;;;;;;;2.15;0.50;;;30.90;59.00;;;;;;10791777;33;20327;-73
2023/06/29 14:48:35;;;;;;;1.92;1.20;;;30.90;55.50;;;;;;10791735;33;20020;-74
2023/06/29 14:54:38;;;;;;;2.28;1.20;;;31.10;56.60;;;;;;10791199;33;20381;-73
2023/06/29 15:00:40;;;;;;;1.48;0.85;;;31.00;59.00;;;;;;10791270;33;20020;-73
2023/06/29 15:06:43;;;;;;;0.88;0.60;;;30.80;57.70;;;;;;10790794;33;20012;-73
2023/06/29 15:12:45;;;;;;;1.80;1.02;;;30.70;58.90;;;;;;10790702;33;20020;-73
2023/06/29 15:18:47;;;;;;;5.30;1.45;;;30.70;56.70;;;;;;10788546;32;20334;-73
2023/06/29 15:24:49;;;;;;;3.53;1.05;;;30.70;57.10;;;;;;10790520;33;20017;-73
2023/06/29 15:30:52;;;;;;;3.00;1.03;;;30.60;56.70;;;;;;10497368;27;12054354;-73
2023/06/29 15:36:54;;;;;;;1.58;0.60;;;30.60;57.80;;;;;;10849900;32;20054;-74
2023/06/29 15:42:57;;;;;;;1.30;0.80;;;30.60;58.90;;;;;;10866028;32;20028;-75
2023/06/29 15:48:59;;;;;;;1.70;1.30;;;30.60;55.90;;;;;;10865399;32;20054;-75
2023/06/29 15:55:19;;;;;;;7.72;0.95;;;30.60;57.60;;;;;;10800185;32;20057;-74
2023/06/29 16:01:21;;;;;;;3.30;1.23;;;30.60;56.20;;;;;;10798154;32;20083;-75
2023/06/29 16:07:24;;;;;;;7.68;1.73;;;30.50;56.40;;;;;;10752761;33;20339;-74
2023/06/29 16:13:26;;;;;;;1.40;1.02;;;30.60;57.70;;;;;;10752557;33;20043;-76
2023/06/29 16:19:28;;;;;;;4.90;1.30;;;30.50;56.30;;;;;;10752516;33;20017;-76
2023/06/29 16:25:30;;;;;;;1.15;0.88;;;30.50;55.50;;;;;;10751604;33;20025;-76
2023/06/29 16:31:33;;;;;;;2.60;1.30;;;30.50;53.90;;;;;;10752060;33;20055;-76
2023/06/29 16:37:35;;;;;;;1.30;0.80;;;30.50;53.60;;;;;;10752104;33;20441;-75
2023/06/29 16:43:38;;;;;;;3.30;1.25;;;30.60;53.20;;;;;;10751789;33;20052;-75
2023/06/29 16:49:40;;;;;;;2.12;1.12;;;30.50;53.80;;;;;;10789232;32;20032;-75
2023/06/29 16:55:43;;;;;;;3.00;1.60;;;30.50;54.40;;;;;;10751551;33;20025;-75
2023/06/29 17:01:46;;;;;;;1.85;0.80;;;30.40;56.60;;;;;;10801657;32;20040;-74
2023/06/29 17:07:48;;;;;;;1.35;0.93;;;30.40;55.90;;;;;;10751361;33;20029;-75
2023/06/29 17:13:50;;;;;;;2.05;0.93;;;30.30;56.80;;;;;;10751076;33;20300;-75
2023/06/29 17:19:52;;;;;;;1.70;0.93;;;30.10;58.40;;;;;;10747196;33;20102;-75
2023/06/29 17:25:54;;;;;;;1.48;0.93;;;30.20;57.90;;;;;;10750661;33;20040;-75
2023/06/29 17:31:57;;;;;;;2.33;1.15;;;30.30;57.80;;;;;;10750689;33;20028;-75
2023/06/29 17:38:00;;;;;;;1.67;0.88;;;30.30;57.60;;;;;;10747397;33;20008;-75
2023/06/29 17:44:03;;;;;;;1.55;0.88;;;30.20;57.50;;;;;;10805361;32;20330;-74
2023/06/29 17:50:43;;;;;;;1.10;0.70;;;30.20;58.80;;;;;;10756823;33;20400;-75
2023/06/29 17:56:45;;;;;;;1.15;0.77;;;30.10;58.60;;;;;;10756779;33;20029;-74
2023/06/29 18:02:47;;;;;;;1.67;0.80;;;30.10;59.90;;;;;;10754743;33;20062;-74
2023/06/29 18:08:49;;;;;;;2.47;0.73;;;30.20;61.30;;;;;;10753665;33;20032;-74
2023/06/29 18:14:51;;;;;;;0.95;0.68;;;30.00;61.50;;;;;;10756897;33;20044;-74
2023/06/29 18:20:54;;;;;;;1.25;0.80;;;29.90;61.90;;;;;;10757145;33;20021;-74
2023/06/29 18:26:56;;;;;;;5.35;1.00;;;29.80;62.40;;;;;;10757348;33;20029;-74
2023/06/29 18:32:58;;;;;;;2.80;0.60;;;29.70;63.40;;;;;;10755802;33;20047;-74
2023/06/29 18:39:00;;;;;;;1.02;0.45;;;29.60;64.00;;;;;;10807077;32;20020;-74
2023/06/29 18:45:05;;;;;;;0.88;0.45;;;29.50;64.40;;;;;;10756697;33;20029;-74
2023/06/29 18:51:07;;;;;;;3.15;0.88;;;29.30;65.00;;;;;;10806563;32;20029;-74
2023/06/29 18:57:10;;;;;;;1.20;0.70;;;29.30;65.70;;;;;;10806627;32;20391;-74
2023/06/29 19:03:12;;;;;;;1.20;0.75;;;29.20;66.20;;;;;;10756740;33;20021;-74
2023/06/29 19:09:14;;;;;;;3.97;0.70;;;29.10;66.70;;;;;;10755451;33;20028;-74
2023/06/29 19:15:18;;;;;;;3.60;0.50;;;29.00;67.10;;;;;;10755071;33;20021;-74
2023/06/29 19:21:20;;;;;;;4.20;0.68;;;29.00;67.60;;;;;;10754343;33;20051;-74
2023/06/29 19:27:24;;;;;;;1.87;0.80;;;28.90;67.80;;;;;;10805573;32;20434;-74
2023/06/29 19:33:27;;;;;;;2.10;0.90;;;28.80;68.30;;;;;;10753876;33;20032;-74
2023/06/29 19:39:29;;;;;;;1.15;0.65;;;28.80;68.90;;;;;;10751850;33;20021;-74
2023/06/29 19:45:32;;;;;;;2.03;0.70;;;28.80;69.40;;;;;;10750782;33;20060;-74
2023/06/29 19:51:36;;;;;;;3.00;0.40;;;28.70;69.80;;;;;;10803348;32;20083;-74
2023/06/29 19:57:38;;;;;;;1.75;0.73;;;28.60;70.20;;;;;;10754333;33;20025;-74
2023/06/29 20:03:40;;;;;;;0.77;0.52;;;28.40;70.60;;;;;;10753144;33;20021;-73
2023/06/29 20:09:42;;;;;;;0.85;0.60;;;28.40;71.00;;;;;;10753373;33;20354;-73
2023/06/29 20:15:45;;;;;;;10.63;1.08;;;28.30;71.20;;;;;;10753343;33;20410;-73
2023/06/29 20:21:47;;;;;;;0.98;0.70;;;28.30;71.50;;;;;;10752656;33;20437;-73
2023/06/29 20:27:49;;;;;;;2.10;0.50;;;28.20;71.80;;;;;;10751550;33;20029;-74
2023/06/29 20:33:52;;;;;;;5.20;0.85;;;28.10;71.90;;;;;;10801234;32;20068;-73
2023/06/29 20:39:54;;;;;;;1.55;0.90;;;28.00;72.10;;;;;;10803427;32;20021;-73
2023/06/29 20:45:56;;;;;;;1.83;0.80;;;28.00;72.40;;;;;;10753144;33;20051;-73
2023/06/29 20:51:59;;;;;;;2.30;0.90;;;27.90;73.30;;;;;;10798260;32;20040;-73
2023/06/29 20:58:02;;;;;;;2.42;1.05;;;27.80;74.10;;;;;;10751278;33;20032;-73
2023/06/29 21:04:04;;;;;;;1.90;0.80;;;27.80;74.00;;;;;;10752111;33;20016;-73
2023/06/29 21:10:06;;;;;;;2.55;1.27;;;27.80;74.00;;;;;;10752188;33;20327;-73
2023/06/29 21:16:09;;;;;;;1.12;0.73;;;27.80;74.30;;;;;;10750718;33;20040;-73
2023/06/29 21:22:12;;;;;;;5.32;1.02;;;27.60;74.20;;;;;;10751237;33;20024;-73
2023/06/29 21:28:15;;;;;;;2.00;0.80;;;27.50;74.60;;;;;;10900591;32;20394;-73
2023/06/29 21:34:18;;;;;;;1.77;0.70;;;27.40;74.90;;;;;;10902730;32;20043;-73
2023/06/29 21:40:20;;;;;;;1.95;1.08;;;27.30;75.20;;;;;;10904373;32;20038;-73
2023/06/29 21:46:22;;;;;;;1.60;1.15;;;27.20;75.40;;;;;;10800394;32;20075;-73
2023/06/29 21:52:25;;;;;;;1.35;0.85;;;27.10;75.80;;;;;;10750542;33;20021;-73
2023/06/29 21:58:27;;;;;;;3.30;0.80;;;27.00;75.90;;;;;;10750411;33;20305;-73
2023/06/29 22:04:30;;;;;;;2.87;1.25;;;26.90;75.70;;;;;;10800147;32;20331;-73
2023/06/29 22:10:33;;;;;;;1.98;1.00;;;26.90;75.90;;;;;;10800110;32;20374;-73
2023/06/29 22:16:39;;;;;;;1.30;0.70;;;26.90;75.80;;;;;;10749901;33;20017;-73
2023/06/29 22:22:47;;;;;;;1.70;0.90;;;26.80;75.90;;;;;;10800124;32;20009;-73
2023/06/29 22:28:49;;;;;;;1.12;0.80;;;26.80;75.80;;;;;;10753342;33;20044;-73
2023/06/29 22:34:51;;;;;;;3.03;0.80;;;26.80;75.70;;;;;;10755842;33;20323;-73
2023/06/29 22:40:53;;;;;;;2.25;0.68;;;26.80;76.10;;;;;;10755595;33;20025;-73
2023/06/29 22:46:55;;;;;;;2.58;0.68;;;26.70;75.70;;;;;;10751511;33;20346;-73
2023/06/29 22:52:57;;;;;;;1.80;0.80;;;26.60;75.90;;;;;;10755131;33;20047;-73
2023/06/29 22:59:07;;;;;;;1.40;0.95;;;26.50;76.10;;;;;;10755088;33;20031;-73
2023/06/29 23:05:09;;;;;;;1.08;0.62;;;26.40;76.00;;;;;;10754790;33;20051;-73
2023/06/29 23:11:15;;;;;;;4.22;1.00;;;26.30;76.20;;;;;;10754541;33;20020;-73
2023/06/29 23:17:25;;;;;;;1.92;1.05;;;26.30;76.40;;;;;;10754586;33;20043;-73
2023/06/29 23:23:29;;;;;;;2.42;1.25;;;26.30;75.90;;;;;;10804391;32;20399;-73
2023/06/29 23:29:31;;;;;;;0.95;0.85;;;26.20;75.90;;;;;;10756956;27;20033;-73
2023/06/29 23:35:33;;;;;;;1.80;0.70;;;26.10;76.20;;;;;;10753249;33;20051;-73
2023/06/29 23:41:35;;;;;;;1.08;0.88;;;25.90;76.30;;;;;;10752236;33;20043;-73
2023/06/29 23:47:38;;;;;;;1.30;0.90;;;25.90;76.60;;;;;;10753768;33;20347;-73
2023/06/29 23:53:40;;;;;;;4.25;1.10;;;25.80;76.80;;;;;;10753350;33;20025;-73
2023/06/29 23:59:42;;;;;;;1.42;1.05;;;25.80;76.80;;;;;;10753360;33;20028;-73
